Time;durP1;ratioP1;P1;durP2;ratioP2;P2;SDS_P1;SDS_P2;PMS_P1;PMS_P2;Temp;Humidity;BMP_temperature;BMP_pressure;BME280_temperature;BME280_humidity;BME280_pressure;Samples;Min_cycle;Max_cycle;Signal;HPM_P1;HPM_P2
2022/01/23 00:00:03;;;;;;;11.23;10.63;;;;;;;-5.19;68.85;92980.94;5013218;28;20262;-79
2022/01/23 00:02:29;;;;;;;12.03;11.30;;;;;;;-5.12;68.84;92977.50;5011620;28;20239;-75
2022/01/23 00:04:55;;;;;;;10.93;10.43;;;;;;;-5.08;70.62;93009.28;5011982;28;20196;-78
2022/01/23 00:07:22;;;;;;;12.93;12.23;;;;;;;-5.20;67.47;92984.44;5011567;28;20262;-77
2022/01/23 00:09:47;;;;;;;11.10;10.50;;;;;;;-5.10;67.73;93015.50;5012006;28;20198;-78
2022/01/23 00:12:18;;;;;;;11.20;10.40;;;;;;;-5.17;68.08;92997.59;5011522;28;20223;-78
2022/01/23 00:17:33;;;;;;;11.20;10.43;;;;;;;-4.90;68.01;93014.00;5012517;28;20256;-78
2022/01/23 00:20:03;;;;;;;12.27;11.37;;;;;;;-4.78;70.76;93009.28;5012204;28;20215;-77
2022/01/23 00:22:43;;;;;;;11.80;11.03;;;;;;;-4.90;68.26;93020.88;5011566;28;20246;-77
2022/01/23 00:30:41;;;;;;;11.23;10.63;;;;;;;-5.06;68.43;92993.84;5011779;28;20206;-78
2022/01/23 00:33:08;;;;;;;11.37;10.67;;;;;;;-4.72;68.37;93029.72;5011048;28;20234;-77
2022/01/23 00:35:36;;;;;;;10.53;9.93;;;;;;;-5.05;68.76;93008.94;5011195;28;20200;-78
2022/01/23 00:38:03;;;;;;;11.53;10.97;;;;;;;-4.88;70.33;93003.66;5011971;28;20395;-77
2022/01/23 00:40:30;;;;;;;9.90;9.40;;;;;;;-4.90;70.19;93020.88;5012282;28;20206;-77
2022/01/23 00:42:58;;;;;;;11.97;10.97;;;;;;;-4.95;69.19;93024.72;5010883;28;20230;-77
2022/01/23 00:45:33;;;;;;;11.80;10.87;;;;;;;-5.06;70.11;93020.06;5010796;28;20203;-77
2022/01/23 00:48:08;;;;;;;11.67;10.77;;;;;;;-5.23;70.48;93005.94;5011306;28;20223;-76
2022/01/23 00:50:39;;;;;;;11.57;10.67;;;;;;;-5.16;70.65;93017.00;5011819;28;20198;-78
2022/01/23 00:53:10;;;;;;;11.33;10.60;;;;;;;-4.84;70.71;93015.06;5011003;28;20281;-78
2022/01/23 00:55:40;;;;;;;11.13;10.43;;;;;;;-4.99;72.02;93033.69;5010768;28;20322;-77
2022/01/23 00:58:06;;;;;;;11.47;10.87;;;;;;;-5.11;71.95;93024.91;5009970;28;20227;-78
2022/01/23 01:00:32;;;;;;;10.77;10.10;;;;;;;-4.96;71.80;93030.78;5010874;28;20199;-78
2022/01/23 01:03:01;;;;;;;11.93;10.83;;;;;;;-5.18;73.35;93008.75;5008593;28;20227;-78
2022/01/23 01:05:28;;;;;;;11.83;10.83;;;;;;;-5.21;73.66;93024.38;5010391;28;20196;-78
2022/01/23 01:07:54;;;;;;;12.30;11.47;;;;;;;-5.27;73.80;93003.91;5010515;28;20243;-77
2022/01/23 01:10:25;;;;;;;11.43;10.83;;;;;;;-5.34;77.38;93003.81;5011323;28;20219;-78
2022/01/23 01:12:56;;;;;;;10.03;9.47;;;;;;;-5.46;74.55;92992.50;5010104;28;20226;-78
2022/01/23 01:32:09;;;;;;;12.53;11.53;;;;;;;-5.14;74.89;93040.53;5010430;28;20237;-78
2022/01/23 01:34:47;;;;;;;13.97;12.37;;;;;;;-5.21;74.97;93047.25;5009767;28;20191;-77
2022/01/23 01:37:13;;;;;;;11.03;10.37;;;;;;;-5.27;75.83;93036.97;5010320;28;20295;-77
2022/01/23 01:39:38;;;;;;;11.93;11.03;;;;;;;-5.29;74.82;93010.91;5010202;28;20223;-77
2022/01/23 01:42:04;;;;;;;12.10;11.23;;;;;;;-5.20;75.22;93045.53;5009871;28;20238;-78
2022/01/23 01:44:31;;;;;;;12.03;11.07;;;;;;;-5.08;74.08;93026.31;5010423;28;20180;-78
2022/01/23 01:46:56;;;;;;;11.30;10.70;;;;;;;-5.17;74.29;93035.00;5010469;28;20238;-78
2022/01/23 01:49:28;;;;;;;11.77;10.97;;;;;;;-5.24;74.10;93017.09;5010207;28;20187;-78
2022/01/23 01:52:00;;;;;;;10.70;10.00;;;;;;;-5.25;74.24;93028.22;5008652;28;20231;-77
2022/01/23 01:54:29;;;;;;;11.67;10.90;;;;;;;-5.22;74.96;93029.63;5010419;28;20195;-78
2022/01/23 01:57:06;;;;;;;13.13;12.33;;;;;;;-5.22;74.62;93030.44;5008263;28;20230;-77
2022/01/23 02:10:26;;;;;;;12.77;11.33;;;;;;;-5.27;74.32;93045.41;5009826;28;20198;-78
2022/01/23 02:13:05;;;;;;;11.50;10.60;;;;;;;-5.18;74.11;93041.03;5008919;28;20228;-77
2022/01/23 02:51:05;;;;;;;12.70;11.50;;;;;;;-5.71;73.22;93036.88;5014081;28;20210;-77
2022/01/23 02:56:33;;;;;;;13.07;11.90;;;;;;;-5.73;73.48;93054.09;5013281;28;20194;-76
2022/01/23 02:59:00;;;;;;;12.10;11.40;;;;;;;-5.53;73.82;93079.81;5012612;28;20235;-77
2022/01/23 03:01:30;;;;;;;12.93;11.40;;;;;;;-5.60;75.57;93064.44;5014276;28;20424;-77
2022/01/23 03:04:01;;;;;;;13.63;12.70;;;;;;;-5.74;73.25;93057.56;5013706;28;20204;-77
2022/01/23 03:14:48;;;;;;;11.90;11.13;;;;;;;-5.74;73.40;93067.75;5013330;28;21663;-77
2022/01/23 03:33:29;;;;;;;12.23;11.33;;;;;;;-5.83;72.38;93063.72;5005270;28;20223;-77
2022/01/23 03:35:54;;;;;;;12.87;11.87;;;;;;;-5.68;71.55;93079.00;5012979;28;20184;-77
2022/01/23 03:38:20;;;;;;;13.77;12.77;;;;;;;-5.75;72.39;93088.25;5013607;28;20230;-77
2022/01/23 03:40:45;;;;;;;13.47;12.67;;;;;;;-5.72;71.73;93088.72;5012686;28;20202;-77
2022/01/23 03:43:13;;;;;;;13.03;12.10;;;;;;;-5.78;71.85;93074.13;5012090;28;20331;-77
2022/01/23 03:50:43;;;;;;;12.00;11.10;;;;;;;-5.52;70.64;93087.28;5013618;28;20191;-77
2022/01/23 03:53:08;;;;;;;12.47;11.67;;;;;;;-5.57;70.90;93093.84;5012065;28;20231;-77
2022/01/23 03:55:35;;;;;;;13.20;12.10;;;;;;;-5.44;70.16;93102.47;5011470;28;20179;-77
2022/01/23 03:58:00;;;;;;;13.67;12.40;;;;;;;-5.41;70.36;93088.63;5012303;28;20322;-76
2022/01/23 04:00:26;;;;;;;13.23;12.23;;;;;;;-5.34;69.92;93110.66;5011375;28;20210;-77
2022/01/23 04:02:52;;;;;;;11.47;10.87;;;;;;;-5.30;69.14;93104.28;5012151;28;20253;-77
2022/01/23 04:05:17;;;;;;;12.47;11.83;;;;;;;-5.40;69.03;93087.69;5012382;28;20207;-77
2022/01/23 04:07:43;;;;;;;11.40;10.53;;;;;;;-5.30;68.56;93100.94;5011921;28;20257;-76
2022/01/23 04:10:12;;;;;;;11.67;11.10;;;;;;;-5.34;68.58;93118.28;5012025;28;20263;-77
2022/01/23 04:15:29;;;;;;;12.40;11.63;;;;;;;-5.42;69.12;93115.81;5012340;28;20203;-77
2022/01/23 04:34:26;;;;;;;12.17;11.47;;;;;;;-5.40;70.00;93101.16;5012104;28;20720;-76
2022/01/23 04:45:29;;;;;;;12.93;11.73;;;;;;;-5.34;67.87;93115.72;5011428;28;20206;-77
2022/01/23 05:04:32;;;;;;;12.60;11.77;;;;;;;-5.36;68.15;93115.13;5009769;28;20229;-76
2022/01/23 05:07:01;;;;;;;13.47;12.40;;;;;;;-5.59;68.18;93118.66;5008971;28;20226;-77
2022/01/23 05:09:28;;;;;;;13.67;12.73;;;;;;;-5.59;67.67;93123.72;5011713;28;20190;-77
2022/01/23 05:11:59;;;;;;;10.97;10.40;;;;;;;-5.47;69.78;93123.16;5010500;28;20231;-77
2022/01/23 05:14:36;;;;;;;13.30;12.27;;;;;;;-5.50;68.05;93128.59;5010470;28;20184;-77
2022/01/23 05:17:04;;;;;;;12.17;11.47;;;;;;;-5.47;67.59;93138.44;5010884;28;20234;-77
2022/01/23 05:19:29;;;;;;;14.30;13.47;;;;;;;-5.62;67.86;93131.69;5011378;28;20199;-77
2022/01/23 05:24:27;;;;;;;12.37;11.57;;;;;;;-5.73;68.63;93140.53;5011138;28;20290;-76
2022/01/23 05:27:01;;;;;;;10.30;9.80;;;;;;;-5.69;67.81;93146.84;5010832;28;20239;-76
2022/01/23 05:29:27;;;;;;;12.97;12.00;;;;;;;-5.87;67.83;93117.59;5011335;28;20186;-77
2022/01/23 05:31:53;;;;;;;11.30;10.70;;;;;;;-5.70;71.33;93107.13;5010083;28;20243;-79
2022/01/23 05:34:21;;;;;;;12.00;11.27;;;;;;;-5.46;70.88;93134.91;5011076;28;20255;-78
2022/01/23 05:36:46;;;;;;;12.23;11.47;;;;;;;-5.39;68.28;93132.47;5010582;28;20227;-79
2022/01/23 05:39:13;;;;;;;11.97;11.00;;;;;;;-5.53;68.07;93143.41;5009620;28;20207;-79
2022/01/23 05:41:38;;;;;;;12.13;11.40;;;;;;;-5.69;67.59;93125.69;5009443;28;20235;-79
2022/01/23 05:44:04;;;;;;;11.60;10.70;;;;;;;-5.93;66.98;93108.88;5009700;28;20183;-79
2022/01/23 05:46:29;;;;;;;11.03;10.43;;;;;;;-5.73;67.68;93140.53;5008998;28;20330;-80
2022/01/23 05:48:55;;;;;;;12.37;11.37;;;;;;;-5.85;67.65;93125.84;5010324;28;20196;-80
2022/01/23 05:51:20;;;;;;;12.50;11.80;;;;;;;-5.76;67.94;93148.44;5009726;28;20238;-75
2022/01/23 05:53:47;;;;;;;12.63;11.83;;;;;;;-5.72;69.10;93141.28;5005131;28;20196;-75
2022/01/23 05:56:13;;;;;;;11.83;11.23;;;;;;;-5.82;67.73;93133.13;5008034;28;20183;-76
2022/01/23 05:58:38;;;;;;;11.50;10.67;;;;;;;-5.72;70.20;93119.22;5007565;28;20262;-75
2022/01/23 06:01:04;;;;;;;12.17;11.37;;;;;;;-5.48;70.72;93141.91;5010238;28;20271;-75
2022/01/23 06:03:29;;;;;;;12.10;11.50;;;;;;;-5.79;67.61;93141.16;5010141;28;20237;-75
2022/01/23 06:05:55;;;;;;;12.90;11.93;;;;;;;-5.88;68.00;93129.50;5008695;28;20202;-75
2022/01/23 06:08:22;;;;;;;11.60;11.00;;;;;;;-5.87;68.11;93159.06;5010093;28;20270;-74
2022/01/23 06:10:57;;;;;;;12.10;11.10;;;;;;;-5.76;69.52;93134.97;5006912;28;20222;-76
2022/01/23 06:13:24;;;;;;;13.30;12.50;;;;;;;-5.52;69.55;93155.13;5008110;28;20257;-80
2022/01/23 06:15:50;;;;;;;12.13;11.33;;;;;;;-5.42;68.64;93155.72;5008203;28;20239;-81
2022/01/23 06:18:16;;;;;;;13.47;12.43;;;;;;;-5.70;68.16;93152.88;5007940;28;20231;-83
2022/01/23 06:20:42;;;;;;;13.97;12.63;;;;;;;-5.70;67.31;93157.97;5006979;28;20191;-82
2022/01/23 06:23:07;;;;;;;15.70;12.73;;;;;;;-5.84;67.44;93135.03;5008127;28;20290;-82
2022/01/23 06:25:35;;;;;;;13.77;12.60;;;;;;;-5.72;67.32;93167.50;5007904;28;20195;-80
2022/01/23 06:28:04;;;;;;;14.40;13.10;;;;;;;-5.62;67.95;93173.16;5007845;28;20238;-81
2022/01/23 06:30:29;;;;;;;11.87;11.07;;;;;;;-5.76;67.68;93173.88;5004651;28;20184;-83
2022/01/23 06:32:55;;;;;;;11.50;10.70;;;;;;;-5.83;67.70;93165.38;5007065;28;20251;-81
2022/01/23 06:35:20;;;;;;;13.00;11.77;;;;;;;-5.70;68.09;93154.63;5006043;28;20193;-86
2022/01/23 06:37:46;;;;;;;14.73;13.53;;;;;;;-5.63;67.98;93171.59;5006486;28;20223;-85
2022/01/23 06:40:12;;;;;;;14.27;13.03;;;;;;;-5.81;67.90;93140.56;5007438;28;20836;-83
2022/01/23 06:42:37;;;;;;;13.40;12.20;;;;;;;-5.49;68.83;93172.59;5004489;28;20247;-84
2022/01/23 06:45:03;;;;;;;12.60;11.40;;;;;;;-5.55;69.40;93170.72;5008114;28;20180;-85
2022/01/23 06:47:28;;;;;;;17.13;15.67;;;;;;;-5.58;68.07;93168.53;5006583;28;20220;-83
2022/01/23 06:49:54;;;;;;;14.80;13.47;;;;;;;-5.59;68.37;93175.38;5007280;28;20210;-84
2022/01/23 06:52:20;;;;;;;12.77;12.00;;;;;;;-5.92;68.11;93105.41;5006167;28;20238;-84
2022/01/23 06:54:45;;;;;;;13.80;12.80;;;;;;;-5.48;67.84;93159.72;5006112;28;20206;-85
2022/01/23 06:57:11;;;;;;;13.33;12.27;;;;;;;-5.35;70.07;93165.03;5006118;28;20224;-76
2022/01/23 06:59:36;;;;;;;13.43;12.73;;;;;;;-5.24;69.16;93179.09;5005712;28;20215;-78
2022/01/23 07:02:03;;;;;;;14.20;12.93;;;;;;;-5.28;68.53;93148.16;5007070;28;20795;-77
2022/01/23 07:04:29;;;;;;;13.03;12.23;;;;;;;-5.35;67.08;93169.31;5004197;28;20187;-83
2022/01/23 07:06:55;;;;;;;13.00;12.10;;;;;;;-5.35;67.61;93159.16;5006260;28;20219;-79
2022/01/23 07:09:20;;;;;;;15.60;14.07;;;;;;;-5.48;68.44;93136.81;5006273;28;20180;-80
2022/01/23 07:11:46;;;;;;;12.97;12.10;;;;;;;-5.26;67.51;93165.78;5003647;28;20231;-78
2022/01/23 07:14:11;;;;;;;14.27;12.80;;;;;;;-5.26;69.90;93153.06;5006641;28;20215;-79
2022/01/23 07:16:37;;;;;;;14.73;13.37;;;;;;;-5.20;68.32;93170.97;5006547;28;20234;-75
2022/01/23 07:19:02;;;;;;;13.33;12.30;;;;;;;-5.24;67.27;93174.03;5009424;28;20267;-76
2022/01/23 07:21:28;;;;;;;12.73;12.03;;;;;;;-5.12;67.00;93172.69;5011188;28;20354;-75
2022/01/23 07:23:53;;;;;;;15.53;14.03;;;;;;;-5.20;66.54;93158.25;5010919;28;20191;-74
2022/01/23 07:26:22;;;;;;;14.37;12.87;;;;;;;-4.86;69.43;93187.56;5011254;28;20191;-84
2022/01/23 07:28:49;;;;;;;13.30;12.20;;;;;;;-4.59;68.02;93176.81;5008391;28;20219;-83
2022/01/23 07:31:32;;;;;;;15.70;14.33;;;;;;;-4.61;65.25;93168.56;5008066;28;20227;-83
2022/01/23 07:34:08;;;;;;;14.87;13.43;;;;;;;-4.48;64.79;93187.34;5010470;28;20211;-85
2022/01/23 07:36:36;;;;;;;14.27;13.00;;;;;;;-4.50;67.35;93181.66;5009895;28;20246;-79
2022/01/23 07:39:02;;;;;;;15.23;13.90;;;;;;;-4.76;64.48;93180.47;5012418;28;20698;-81
2022/01/23 07:41:28;;;;;;;13.37;12.23;;;;;;;-4.72;65.65;93177.41;5009307;28;20231;-78
2022/01/23 07:43:54;;;;;;;14.90;13.40;;;;;;;-4.95;64.35;93141.81;5011632;28;20179;-81
2022/01/23 07:46:21;;;;;;;14.53;13.13;;;;;;;-4.78;63.67;93156.94;5010597;28;20739;-80
2022/01/23 07:48:47;;;;;;;13.70;12.60;;;;;;;-4.55;63.20;93183.13;5011293;28;20246;-80
2022/01/23 07:51:12;;;;;;;14.83;13.63;;;;;;;-4.40;63.92;93184.72;5011505;28;20211;-75
2022/01/23 07:53:38;;;;;;;13.30;12.10;;;;;;;-4.28;62.59;93182.53;5010276;28;20191;-76
2022/01/23 07:56:03;;;;;;;16.10;14.50;;;;;;;-4.28;62.10;93169.81;5009935;28;21108;-84
2022/01/23 07:58:29;;;;;;;14.90;13.43;;;;;;;-4.34;61.52;93171.28;5008512;28;20235;-79
2022/01/23 08:00:54;;;;;;;15.63;14.23;;;;;;;-4.06;62.54;93189.31;5010536;28;20203;-79
2022/01/23 08:03:20;;;;;;;13.00;12.00;;;;;;;-4.13;63.25;93184.13;5001242;28;20229;-79
2022/01/23 08:05:46;;;;;;;13.90;12.60;;;;;;;-4.18;62.74;93155.00;5010984;28;20226;-85
2022/01/23 08:08:11;;;;;;;14.23;12.93;;;;;;;-3.95;60.87;93193.94;5011291;28;20227;-80
2022/01/23 08:10:38;;;;;;;15.27;13.90;;;;;;;-4.48;61.79;93189.13;5010751;28;20215;-78
2022/01/23 08:13:04;;;;;;;22.17;13.83;;;;;;;-4.30;62.87;93192.13;5010774;28;20234;-79
2022/01/23 08:15:30;;;;;;;14.30;13.13;;;;;;;-4.04;62.16;93180.50;5011536;28;20582;-79
2022/01/23 08:18:03;;;;;;;14.17;12.87;;;;;;;-3.88;63.01;93200.72;5009035;28;20227;-80
2022/01/23 08:20:30;;;;;;;12.80;12.00;;;;;;;-4.07;61.42;93197.91;5011465;28;20187;-79
2022/01/23 08:22:58;;;;;;;18.73;15.60;;;;;;;-4.05;61.67;93170.47;5010154;28;20239;-81
2022/01/23 08:25:24;;;;;;;15.20;13.73;;;;;;;-3.92;60.63;93196.16;5009952;28;20195;-82
2022/01/23 08:27:49;;;;;;;14.27;13.03;;;;;;;-4.01;60.48;93184.44;5009520;28;20223;-80
2022/01/23 08:30:15;;;;;;;14.27;12.87;;;;;;;-3.84;63.21;93193.47;5010742;28;20195;-83
2022/01/23 08:32:41;;;;;;;13.57;12.57;;;;;;;-3.88;61.73;93162.47;5010998;28;20228;-81
2022/01/23 08:35:06;;;;;;;15.33;14.07;;;;;;;-3.94;59.86;93187.88;5011437;28;20374;-82
2022/01/23 08:37:32;;;;;;;15.60;14.10;;;;;;;-3.80;60.37;93194.72;5009366;28;20215;-79
2022/01/23 08:39:58;;;;;;;15.17;13.97;;;;;;;-3.91;60.89;93195.97;5011340;28;20222;-81
2022/01/23 08:42:23;;;;;;;13.57;12.73;;;;;;;-4.13;60.81;93191.78;5009214;28;20243;-80
2022/01/23 08:44:50;;;;;;;16.93;15.27;;;;;;;-3.64;59.69;93189.41;5008877;28;20184;-79
2022/01/23 08:47:17;;;;;;;14.63;13.53;;;;;;;-3.81;61.76;93176.06;5010664;28;20241;-82
2022/01/23 08:49:46;;;;;;;14.80;13.40;;;;;;;-3.55;60.26;93183.25;5010311;28;20187;-79
2022/01/23 08:52:17;;;;;;;16.13;14.53;;;;;;;-3.73;60.04;93170.06;5010256;28;20299;-81
2022/01/23 08:54:44;;;;;;;14.27;12.97;;;;;;;-3.64;58.13;93189.41;5010180;28;20237;-82
2022/01/23 08:57:11;;;;;;;14.87;13.43;;;;;;;-3.73;58.90;93175.97;5010197;28;20231;-82
2022/01/23 08:59:36;;;;;;;14.83;13.67;;;;;;;-3.66;59.12;93191.38;5010008;28;20211;-79
2022/01/23 09:02:02;;;;;;;14.67;13.37;;;;;;;-3.59;58.79;93176.91;5009764;28;20259;-81
2022/01/23 09:04:28;;;;;;;15.90;14.50;;;;;;;-3.33;59.69;93177.16;5009269;28;20195;-79
2022/01/23 09:06:53;;;;;;;17.57;15.87;;;;;;;-3.60;57.74;93137.88;5010233;28;20227;-83
2022/01/23 09:09:19;;;;;;;15.20;13.93;;;;;;;-3.63;58.18;93181.56;5009573;28;20187;-82
2022/01/23 09:11:57;;;;;;;13.70;12.53;;;;;;;-3.56;57.48;93164.59;5007503;28;20223;-85
2022/01/23 09:14:23;;;;;;;13.53;12.40;;;;;;;-3.71;57.93;93178.34;5009945;28;20190;-81
2022/01/23 09:16:50;;;;;;;15.17;13.93;;;;;;;-3.85;58.42;93191.91;5008632;28;20250;-84
2022/01/23 09:19:20;;;;;;;15.17;13.97;;;;;;;-3.44;60.26;93186.09;5009371;28;20215;-81
2022/01/23 09:21:49;;;;;;;13.40;12.37;;;;;;;-3.83;58.43;93182.34;5009473;28;20234;-79
2022/01/23 09:24:16;;;;;;;14.10;12.90;;;;;;;-3.60;58.71;93181.22;5006654;28;20223;-80
2022/01/23 09:26:42;;;;;;;13.83;12.63;;;;;;;-3.57;59.36;93155.38;5008610;28;20286;-81
2022/01/23 09:29:15;;;;;;;16.73;15.23;;;;;;;-3.27;58.11;93115.22;5008293;28;20211;-83
2022/01/23 09:32:00;;;;;;;14.03;12.83;;;;;;;-3.35;57.63;93169.69;5008150;28;20341;-79
2022/01/23 09:34:28;;;;;;;12.53;11.43;;;;;;;-3.65;57.12;93126.59;5009865;28;20242;-81
2022/01/23 09:36:56;;;;;;;12.83;12.00;;;;;;;-3.14;56.34;93166.38;5008520;28;20227;-80
2022/01/23 09:39:23;;;;;;;13.47;12.37;;;;;;;-3.08;56.59;93164.84;5010133;28;20227;-82
2022/01/23 09:41:56;;;;;;;17.50;14.70;;;;;;;-3.18;56.09;93169.47;5006767;28;20285;-77
2022/01/23 09:44:22;;;;;;;12.87;12.13;;;;;;;-3.25;58.33;93158.41;5008907;28;20187;-80
2022/01/23 09:46:48;;;;;;;14.30;13.07;;;;;;;-3.13;55.38;93144.97;5007754;28;20238;-77
2022/01/23 09:49:16;;;;;;;20.50;16.23;;;;;;;-3.03;55.80;93129.31;5008407;28;20183;-75
2022/01/23 09:51:44;;;;;;;15.27;13.97;;;;;;;-2.65;55.12;93153.59;5007675;28;20315;-76
2022/01/23 09:54:11;;;;;;;16.70;15.27;;;;;;;-2.78;54.93;93138.16;5008436;28;20214;-79
2022/01/23 09:56:37;;;;;;;14.00;13.00;;;;;;;-3.59;56.35;93128.44;5006875;28;20235;-75
2022/01/23 09:59:03;;;;;;;15.77;14.40;;;;;;;-3.44;56.21;93129.19;5007184;28;20235;-79
2022/01/23 10:01:30;;;;;;;12.37;11.47;;;;;;;-3.21;57.65;93154.50;5007909;28;20230;-86
2022/01/23 10:03:56;;;;;;;16.37;13.93;;;;;;;-2.75;55.31;93151.38;5008918;28;20191;-85
2022/01/23 10:06:21;;;;;;;18.23;14.13;;;;;;;-2.99;55.62;93139.00;5006322;28;20701;-76
2022/01/23 10:08:49;;;;;;;13.57;12.33;;;;;;;-3.47;56.86;93104.03;5009084;28;20196;-82
2022/01/23 10:11:14;;;;;;;14.93;13.40;;;;;;;-2.74;56.92;93141.94;5008334;28;20226;-77
2022/01/23 10:13:41;;;;;;;13.87;12.53;;;;;;;-3.16;59.66;93134.34;5008663;28;20181;-78
2022/01/23 10:16:07;;;;;;;14.60;13.33;;;;;;;-3.31;56.62;93134.41;5007132;28;20199;-79
2022/01/23 10:18:33;;;;;;;14.23;13.17;;;;;;;-3.25;57.39;93122.69;5006522;28;20214;-80
2022/01/23 10:20:59;;;;;;;15.63;13.80;;;;;;;-3.47;56.53;93107.38;5008198;28;20192;-81
2022/01/23 10:23:26;;;;;;;13.90;12.80;;;;;;;-3.48;56.54;93087.94;5007243;28;20219;-80
2022/01/23 10:25:52;;;;;;;14.07;13.07;;;;;;;-3.36;56.70;93116.28;5007498;28;20176;-79
2022/01/23 10:28:24;;;;;;;13.07;11.03;;;;;;;-3.33;55.84;93105.72;5006226;28;20268;-81
2022/01/23 10:30:54;;;;;;;14.67;13.53;;;;;;;-3.32;56.26;93102.19;5008440;28;20198;-79
2022/01/23 10:33:32;;;;;;;12.53;11.63;;;;;;;-3.21;58.77;93106.00;5006794;28;20711;-78
2022/01/23 10:36:00;;;;;;;12.77;11.97;;;;;;;-3.04;57.14;93113.25;5005241;28;20183;-80
2022/01/23 10:38:43;;;;;;;14.00;12.90;;;;;;;-3.29;55.66;93101.84;5007011;28;20254;-79
2022/01/23 10:47:28;;;;;;;12.40;11.53;;;;;;;-3.10;56.32;93096.09;5008200;28;20252;-78
2022/01/23 10:49:53;;;;;;;13.10;12.07;;;;;;;-3.40;55.29;93104.88;5007900;28;20198;-80
2022/01/23 10:52:32;;;;;;;14.33;13.30;;;;;;;-2.94;56.44;93100.91;5009337;28;20294;-81
2022/01/23 10:54:59;;;;;;;12.23;11.33;;;;;;;-2.68;56.58;93093.47;5011503;28;20191;-80
2022/01/23 10:57:33;;;;;;;13.53;12.40;;;;;;;-2.84;54.04;93080.97;5009667;28;20239;-80
2022/01/23 11:00:01;;;;;;;13.87;12.43;;;;;;;-2.85;53.76;93104.13;5011289;28;20242;-79
2022/01/23 11:02:26;;;;;;;13.13;12.07;;;;;;;-2.89;54.36;93090.94;5011513;28;20250;-83
2022/01/23 11:04:56;;;;;;;11.60;11.00;;;;;;;-2.94;54.27;93100.16;5010935;28;20191;-81
2022/01/23 11:07:24;;;;;;;11.57;10.77;;;;;;;-3.11;54.25;93091.97;5011648;28;20235;-77
2022/01/23 11:09:56;;;;;;;11.87;11.17;;;;;;;-3.41;54.69;93088.75;5009655;28;20221;-77
2022/01/23 11:18:00;;;;;;;11.07;10.37;;;;;;;-3.08;54.33;93083.16;5009835;28;20234;-75
2022/01/23 11:20:32;;;;;;;10.30;9.80;;;;;;;-3.23;54.14;93079.88;5009970;28;20243;-80
2022/01/23 11:23:27;;;;;;;11.63;10.77;;;;;;;-3.19;53.58;93084.44;5009252;28;20239;-79
2022/01/23 11:25:52;;;;;;;14.50;11.87;;;;;;;-3.26;54.24;93088.69;5007162;28;20958;-80
2022/01/23 11:28:19;;;;;;;13.77;12.63;;;;;;;-3.10;53.74;93083.34;5010385;28;20223;-76
2022/01/23 11:30:48;;;;;;;13.33;12.23;;;;;;;-3.13;54.54;93060.75;5010085;28;20204;-76
2022/01/23 11:33:18;;;;;;;13.53;12.37;;;;;;;-2.82;53.35;93068.81;5010648;28;20247;-77
2022/01/23 11:35:48;;;;;;;13.97;12.50;;;;;;;-2.52;51.95;93054.03;5010418;28;20184;-79
2022/01/23 11:38:17;;;;;;;10.90;10.30;;;;;;;-2.97;52.25;93073.19;5008408;28;20227;-78
2022/01/23 11:54:41;;;;;;;13.40;12.07;;;;;;;-3.25;52.94;93062.19;5011551;28;20211;-74
2022/01/23 11:57:39;;;;;;;12.60;11.63;;;;;;;-3.28;53.11;93056.69;5010440;28;20230;-79
2022/01/23 12:00:10;;;;;;;13.37;12.33;;;;;;;-3.36;53.16;93058.38;5011157;28;20274;-78
2022/01/23 12:02:38;;;;;;;13.50;12.40;;;;;;;-3.43;52.77;93034.59;5008893;28;20291;-75
2022/01/23 12:05:10;;;;;;;12.83;11.77;;;;;;;-3.16;52.58;93038.13;5008993;28;20203;-74
2022/01/23 12:07:36;;;;;;;14.17;13.03;;;;;;;-3.33;54.67;93031.69;5009912;28;20220;-73
2022/01/23 12:10:13;;;;;;;13.47;12.40;;;;;;;-3.28;54.44;93041.38;5009091;28;20222;-77
2022/01/23 12:12:42;;;;;;;14.07;12.93;;;;;;;-3.08;54.25;93032.88;5008828;28;20261;-81
2022/01/23 12:18:29;;;;;;;12.20;11.30;;;;;;;-3.30;52.58;93013.50;5006368;28;20238;-80
2022/01/23 12:20:55;;;;;;;13.37;12.17;;;;;;;-3.33;52.97;93034.25;5010144;28;20229;-75
2022/01/23 12:23:22;;;;;;;14.47;13.17;;;;;;;-3.46;53.08;93047.72;5009017;28;20219;-79
2022/01/23 12:25:51;;;;;;;13.43;12.10;;;;;;;-3.39;54.21;93045.19;5008568;28;20208;-75
2022/01/23 12:28:28;;;;;;;13.73;12.63;;;;;;;-3.29;52.77;93050.78;5008586;28;20250;-79
2022/01/23 12:31:12;;;;;;;15.70;14.10;;;;;;;-3.48;53.57;93053.97;5009101;28;20210;-76
2022/01/23 12:33:41;;;;;;;12.20;11.17;;;;;;;-3.44;54.16;93043.19;5009206;28;20203;-77
2022/01/23 12:36:14;;;;;;;12.67;11.77;;;;;;;-3.33;54.69;93049.56;5007433;28;21551;-79
2022/01/23 12:38:47;;;;;;;12.43;11.27;;;;;;;-3.60;53.90;93023.06;5009578;28;20761;-83
2022/01/23 12:41:32;;;;;;;15.67;14.03;;;;;;;-3.42;54.64;93023.41;5009699;28;20195;-79
2022/01/23 12:44:06;;;;;;;14.87;13.37;;;;;;;-3.41;54.74;93047.16;5010157;28;20190;-85
2022/01/23 12:46:48;;;;;;;13.87;12.67;;;;;;;-3.42;54.76;93054.03;5009311;28;20231;-83
2022/01/23 12:49:16;;;;;;;12.07;11.10;;;;;;;-3.19;57.12;93041.03;5007448;28;20199;-81
2022/01/23 12:51:43;;;;;;;13.37;12.43;;;;;;;-3.50;55.36;93048.25;5008521;28;20254;-79
2022/01/23 12:54:24;;;;;;;12.43;11.33;;;;;;;-3.80;55.70;93031.50;5008411;28;20192;-80
2022/01/23 12:56:51;;;;;;;12.53;11.63;;;;;;;-3.47;55.61;93055.56;5007355;28;20231;-78
2022/01/23 12:59:28;;;;;;;11.33;10.53;;;;;;;-3.38;55.19;93047.56;5008816;28;20231;-81
2022/01/23 13:02:02;;;;;;;11.83;11.03;;;;;;;-3.20;56.37;93053.97;5010428;28;20381;-79
2022/01/23 13:04:53;;;;;;;13.10;12.30;;;;;;;-3.55;56.59;93036.03;5010509;28;20175;-80
2022/01/23 13:07:32;;;;;;;12.17;11.23;;;;;;;-3.71;56.00;93038.88;5008948;28;20233;-77
2022/01/23 13:10:09;;;;;;;12.63;11.50;;;;;;;-3.80;55.48;93024.63;5009015;28;20199;-79
2022/01/23 13:18:20;;;;;;;13.37;12.37;;;;;;;-3.45;63.14;93028.06;5006343;28;20207;-78
2022/01/23 13:32:19;;;;;;;14.67;13.77;;;;;;;-3.95;55.94;93053.72;5029109;28;20353;-75
2022/01/23 13:34:52;;;;;;;13.20;12.20;;;;;;;-3.63;56.63;93059.13;5005035;28;20205;-78
2022/01/23 13:37:21;;;;;;;11.67;11.07;;;;;;;-3.80;56.88;93051.91;5007210;28;20231;-75
2022/01/23 13:39:59;;;;;;;13.53;12.37;;;;;;;-3.90;57.19;93059.06;5006159;28;20207;-75
2022/01/23 13:53:34;;;;;;;13.00;12.00;;;;;;;-3.80;58.35;93057.03;5006817;28;20242;-75
2022/01/23 13:58:53;;;;;;;15.90;14.03;;;;;;;-3.56;59.36;93041.34;5006641;28;20230;-77
2022/01/23 14:03:51;;;;;;;14.93;13.63;;;;;;;-3.97;58.27;93046.25;5004443;28;20199;-75
2022/01/23 14:06:17;;;;;;;15.83;14.20;;;;;;;-3.92;59.03;93036.28;5006324;28;20187;-76
2022/01/23 14:08:59;;;;;;;16.60;14.37;;;;;;;-3.76;61.41;93053.13;5009130;28;20222;-75
2022/01/23 14:11:26;;;;;;;15.40;14.10;;;;;;;-3.88;58.28;93040.09;5009881;28;20191;-76
2022/01/23 14:13:51;;;;;;;12.83;11.87;;;;;;;-3.82;58.00;93066.59;5008172;28;20263;-76
2022/01/23 14:16:25;;;;;;;12.83;11.90;;;;;;;-4.00;59.45;93066.22;5007991;28;20187;-75
2022/01/23 14:18:50;;;;;;;13.37;12.37;;;;;;;-4.08;59.50;93059.50;5007126;28;20273;-76
2022/01/23 14:21:16;;;;;;;14.10;12.93;;;;;;;-3.92;59.92;93068.66;5008895;28;20191;-75
2022/01/23 14:23:51;;;;;;;13.60;12.23;;;;;;;-4.06;59.98;93057.53;5010187;28;20199;-76
2022/01/23 14:26:17;;;;;;;15.23;13.80;;;;;;;-3.98;58.83;93074.47;5009064;28;20175;-76
2022/01/23 14:28:46;;;;;;;14.70;13.47;;;;;;;-3.77;58.80;93077.84;5012145;28;20278;-75
2022/01/23 14:31:37;;;;;;;14.50;13.10;;;;;;;-3.91;62.17;93062.59;5011963;28;20787;-82
2022/01/23 14:34:03;;;;;;;17.10;15.40;;;;;;;-3.92;59.84;93083.97;5014331;28;21193;-86
2022/01/23 14:36:38;;;;;;;17.73;16.23;;;;;;;-4.22;59.69;93065.41;5012634;28;20222;-82
2022/01/23 14:39:05;;;;;;;14.33;12.93;;;;;;;-4.12;59.89;93078.63;5009178;28;20218;-81
2022/01/23 14:41:34;;;;;;;14.47;13.13;;;;;;;-4.23;61.58;93091.03;5013435;28;20257;-79
2022/01/23 14:44:05;;;;;;;15.23;13.53;;;;;;;-4.52;61.22;93055.41;5011964;28;20194;-76
2022/01/23 14:46:31;;;;;;;15.73;14.27;;;;;;;-4.57;61.59;93070.44;5012585;28;20226;-77
2022/01/23 14:49:00;;;;;;;14.93;13.53;;;;;;;-4.67;62.98;93041.91;5011263;28;20183;-78
2022/01/23 14:51:29;;;;;;;15.37;13.77;;;;;;;-4.43;63.13;93074.72;5010894;28;20206;-78
2022/01/23 14:53:55;;;;;;;13.50;12.30;;;;;;;-4.48;62.89;93070.16;5012489;28;20180;-76
2022/01/23 14:56:20;;;;;;;21.20;16.50;;;;;;;-4.39;62.49;93081.06;5010598;28;20218;-77